sensor_id;sensor_type;location;lat;lon;timestamp;P1;durP1;ratioP1;P2;durP2;ratioP2
19919;SDS011;10122;50.074;19.920;2022-08-19T00:00:19;16.85;;;14.40;;
19919;SDS011;10122;50.074;19.920;2022-08-19T00:02:45;17.40;;;15.15;;
19919;SDS011;10122;50.074;19.920;2022-08-19T00:05:12;18.40;;;14.43;;
19919;SDS011;10122;50.074;19.920;2022-08-19T00:07:39;16.75;;;14.45;;
19919;SDS011;10122;50.074;19.920;2022-08-19T00:10:06;16.00;;;14.23;;
19919;SDS011;10122;50.074;19.920;2022-08-19T00:12:33;16.85;;;14.18;;
19919;SDS011;10122;50.074;19.920;2022-08-19T00:15:00;16.90;;;14.70;;
19919;SDS011;10122;50.074;19.920;2022-08-19T00:17:26;15.60;;;14.00;;
19919;SDS011;10122;50.074;19.920;2022-08-19T00:19:51;16.40;;;14.68;;
19919;SDS011;10122;50.074;19.920;2022-08-19T00:22:17;16.58;;;14.35;;
19919;SDS011;10122;50.074;19.920;2022-08-19T00:24:44;16.30;;;14.10;;
19919;SDS011;10122;50.074;19.920;2022-08-19T00:27:10;16.05;;;14.15;;
19919;SDS011;10122;50.074;19.920;2022-08-19T00:29:36;18.25;;;14.50;;
19919;SDS011;10122;50.074;19.920;2022-08-19T00:32:03;18.75;;;15.20;;
19919;SDS011;10122;50.074;19.920;2022-08-19T00:34:29;17.27;;;14.35;;
19919;SDS011;10122;50.074;19.920;2022-08-19T00:36:55;18.20;;;14.57;;
19919;SDS011;10122;50.074;19.920;2022-08-19T00:39:21;17.58;;;14.77;;
19919;SDS011;10122;50.074;19.920;2022-08-19T00:41:47;16.90;;;14.65;;
19919;SDS011;10122;50.074;19.920;2022-08-19T00:44:16;18.42;;;14.20;;
19919;SDS011;10122;50.074;19.920;2022-08-19T00:46:45;17.08;;;14.23;;
19919;SDS011;10122;50.074;19.920;2022-08-19T00:52:15;16.45;;;13.80;;
19919;SDS011;10122;50.074;19.920;2022-08-19T00:54:44;18.15;;;14.93;;
19919;SDS011;10122;50.074;19.920;2022-08-19T00:57:14;17.10;;;14.52;;
19919;SDS011;10122;50.074;19.920;2022-08-19T00:59:42;16.92;;;14.57;;
19919;SDS011;10122;50.074;19.920;2022-08-19T01:02:12;17.80;;;14.95;;
19919;SDS011;10122;50.074;19.920;2022-08-19T01:04:37;16.60;;;14.57;;
19919;SDS011;10122;50.074;19.920;2022-08-19T01:07:03;19.60;;;15.18;;
19919;SDS011;10122;50.074;19.920;2022-08-19T01:09:29;17.25;;;14.45;;
19919;SDS011;10122;50.074;19.920;2022-08-19T01:11:57;17.88;;;14.80;;
19919;SDS011;10122;50.074;19.920;2022-08-19T01:14:23;17.40;;;15.30;;
19919;SDS011;10122;50.074;19.920;2022-08-19T01:16:49;16.88;;;15.10;;
19919;SDS011;10122;50.074;19.920;2022-08-19T01:19:23;17.13;;;15.10;;
19919;SDS011;10122;50.074;19.920;2022-08-19T01:22:43;19.35;;;15.85;;
19919;SDS011;10122;50.074;19.920;2022-08-19T01:24:45;20.98;;;15.93;;
19919;SDS011;10122;50.074;19.920;2022-08-19T01:27:10;19.00;;;16.35;;
19919;SDS011;10122;50.074;19.920;2022-08-19T01:29:37;18.17;;;16.27;;
19919;SDS011;10122;50.074;19.920;2022-08-19T01:32:07;19.92;;;15.73;;
19919;SDS011;10122;50.074;19.920;2022-08-19T01:34:36;19.95;;;16.05;;
19919;SDS011;10122;50.074;19.920;2022-08-19T01:37:06;20.60;;;16.73;;
19919;SDS011;10122;50.074;19.920;2022-08-19T01:39:36;21.45;;;16.13;;
19919;SDS011;10122;50.074;19.920;2022-08-19T01:42:05;18.73;;;16.52;;
19919;SDS011;10122;50.074;19.920;2022-08-19T01:44:32;20.02;;;16.30;;
19919;SDS011;10122;50.074;19.920;2022-08-19T01:46:58;19.75;;;16.50;;
19919;SDS011;10122;50.074;19.920;2022-08-19T01:49:24;21.60;;;17.77;;
19919;SDS011;10122;50.074;19.920;2022-08-19T01:51:52;20.08;;;17.20;;
19919;SDS011;10122;50.074;19.920;2022-08-19T01:54:19;22.52;;;17.38;;
19919;SDS011;10122;50.074;19.920;2022-08-19T01:56:46;19.83;;;17.23;;
19919;SDS011;10122;50.074;19.920;2022-08-19T01:59:14;20.20;;;16.85;;
19919;SDS011;10122;50.074;19.920;2022-08-19T02:01:43;19.50;;;16.85;;
19919;SDS011;10122;50.074;19.920;2022-08-19T02:04:09;20.55;;;17.27;;
19919;SDS011;10122;50.074;19.920;2022-08-19T02:06:35;21.48;;;17.52;;
19919;SDS011;10122;50.074;19.920;2022-08-19T02:09:01;18.88;;;16.55;;
19919;SDS011;10122;50.074;19.920;2022-08-19T02:11:31;19.50;;;16.83;;
19919;SDS011;10122;50.074;19.920;2022-08-19T02:13:58;20.50;;;16.58;;
19919;SDS011;10122;50.074;19.920;2022-08-19T02:16:27;19.05;;;16.52;;
19919;SDS011;10122;50.074;19.920;2022-08-19T02:18:52;21.02;;;16.40;;
19919;SDS011;10122;50.074;19.920;2022-08-19T02:21:20;17.42;;;15.57;;
19919;SDS011;10122;50.074;19.920;2022-08-19T02:23:48;19.10;;;16.17;;
19919;SDS011;10122;50.074;19.920;2022-08-19T02:26:14;17.98;;;16.10;;
19919;SDS011;10122;50.074;19.920;2022-08-19T02:28:41;19.73;;;16.42;;
19919;SDS011;10122;50.074;19.920;2022-08-19T02:31:11;19.23;;;15.73;;
19919;SDS011;10122;50.074;19.920;2022-08-19T02:33:38;19.27;;;15.43;;
19919;SDS011;10122;50.074;19.920;2022-08-19T02:36:04;19.83;;;16.13;;
19919;SDS011;10122;50.074;19.920;2022-08-19T02:38:31;18.58;;;16.30;;
19919;SDS011;10122;50.074;19.920;2022-08-19T02:41:01;21.25;;;16.38;;
19919;SDS011;10122;50.074;19.920;2022-08-19T02:43:30;18.73;;;16.08;;
19919;SDS011;10122;50.074;19.920;2022-08-19T02:45:57;19.65;;;15.82;;
19919;SDS011;10122;50.074;19.920;2022-08-19T02:48:23;18.17;;;15.75;;
19919;SDS011;10122;50.074;19.920;2022-08-19T02:50:50;18.90;;;16.63;;
19919;SDS011;10122;50.074;19.920;2022-08-19T02:53:20;19.75;;;16.50;;
19919;SDS011;10122;50.074;19.920;2022-08-19T02:55:52;19.95;;;16.55;;
19919;SDS011;10122;50.074;19.920;2022-08-19T02:58:18;18.90;;;16.55;;
19919;SDS011;10122;50.074;19.920;2022-08-19T03:00:46;21.30;;;17.40;;
19919;SDS011;10122;50.074;19.920;2022-08-19T03:03:14;20.30;;;16.33;;
19919;SDS011;10122;50.074;19.920;2022-08-19T03:05:40;20.67;;;16.88;;
19919;SDS011;10122;50.074;19.920;2022-08-19T03:08:06;19.65;;;17.20;;
19919;SDS011;10122;50.074;19.920;2022-08-19T03:10:33;19.23;;;17.00;;
19919;SDS011;10122;50.074;19.920;2022-08-19T03:13:07;20.77;;;17.45;;
19919;SDS011;10122;50.074;19.920;2022-08-19T03:15:33;18.75;;;16.75;;
19919;SDS011;10122;50.074;19.920;2022-08-19T03:17:59;19.38;;;17.35;;
19919;SDS011;10122;50.074;19.920;2022-08-19T03:20:25;19.40;;;16.48;;
19919;SDS011;10122;50.074;19.920;2022-08-19T03:22:51;23.65;;;17.40;;
19919;SDS011;10122;50.074;19.920;2022-08-19T03:25:16;19.85;;;17.48;;
19919;SDS011;10122;50.074;19.920;2022-08-19T03:27:42;22.67;;;17.27;;
19919;SDS011;10122;50.074;19.920;2022-08-19T03:30:09;19.48;;;16.25;;
19919;SDS011;10122;50.074;19.920;2022-08-19T03:32:35;19.88;;;17.77;;
19919;SDS011;10122;50.074;19.920;2022-08-19T03:35:01;20.85;;;17.25;;
19919;SDS011;10122;50.074;19.920;2022-08-19T03:37:27;21.33;;;16.92;;
19919;SDS011;10122;50.074;19.920;2022-08-19T03:39:53;19.75;;;17.60;;
19919;SDS011;10122;50.074;19.920;2022-08-19T03:42:19;21.17;;;17.63;;
19919;SDS011;10122;50.074;19.920;2022-08-19T03:44:44;20.67;;;16.95;;
19919;SDS011;10122;50.074;19.920;2022-08-19T03:47:10;22.23;;;17.00;;
19919;SDS011;10122;50.074;19.920;2022-08-19T03:49:40;19.17;;;16.45;;
19919;SDS011;10122;50.074;19.920;2022-08-19T03:52:06;20.30;;;16.65;;
19919;SDS011;10122;50.074;19.920;2022-08-19T03:54:33;19.35;;;16.75;;
19919;SDS011;10122;50.074;19.920;2022-08-19T03:56:59;19.85;;;17.25;;
19919;SDS011;10122;50.074;19.920;2022-08-19T03:59:26;21.27;;;16.92;;
19919;SDS011;10122;50.074;19.920;2022-08-19T04:01:57;20.10;;;16.67;;
19919;SDS011;10122;50.074;19.920;2022-08-19T04:04:25;20.67;;;16.15;;
19919;SDS011;10122;50.074;19.920;2022-08-19T04:06:51;20.65;;;16.83;;
19919;SDS011;10122;50.074;19.920;2022-08-19T04:09:17;21.23;;;16.77;;
19919;SDS011;10122;50.074;19.920;2022-08-19T04:11:45;17.48;;;15.48;;
19919;SDS011;10122;50.074;19.920;2022-08-19T04:14:14;20.33;;;16.02;;
19919;SDS011;10122;50.074;19.920;2022-08-19T04:16:43;23.23;;;16.23;;
19919;SDS011;10122;50.074;19.920;2022-08-19T04:19:10;18.13;;;15.48;;
19919;SDS011;10122;50.074;19.920;2022-08-19T04:21:36;23.30;;;16.85;;
19919;SDS011;10122;50.074;19.920;2022-08-19T04:24:02;17.63;;;15.55;;
19919;SDS011;10122;50.074;19.920;2022-08-19T04:26:30;19.17;;;15.02;;
19919;SDS011;10122;50.074;19.920;2022-08-19T04:28:59;16.65;;;14.77;;
19919;SDS011;10122;50.074;19.920;2022-08-19T04:31:26;18.27;;;14.73;;
19919;SDS011;10122;50.074;19.920;2022-08-19T04:33:55;19.50;;;15.45;;
19919;SDS011;10122;50.074;19.920;2022-08-19T04:36:24;20.52;;;15.82;;
19919;SDS011;10122;50.074;19.920;2022-08-19T04:38:53;19.45;;;15.95;;
19919;SDS011;10122;50.074;19.920;2022-08-19T04:41:23;19.30;;;15.40;;
19919;SDS011;10122;50.074;19.920;2022-08-19T04:44:08;19.13;;;16.35;;
19919;SDS011;10122;50.074;19.920;2022-08-19T04:46:34;18.80;;;16.08;;
19919;SDS011;10122;50.074;19.920;2022-08-19T04:49:01;21.52;;;17.15;;
19919;SDS011;10122;50.074;19.920;2022-08-19T04:51:29;19.42;;;16.20;;
19919;SDS011;10122;50.074;19.920;2022-08-19T04:53:56;20.33;;;16.88;;
19919;SDS011;10122;50.074;19.920;2022-08-19T04:56:22;17.90;;;16.00;;
19919;SDS011;10122;50.074;19.920;2022-08-19T04:58:47;23.17;;;17.52;;
19919;SDS011;10122;50.074;19.920;2022-08-19T05:01:20;22.17;;;17.73;;
19919;SDS011;10122;50.074;19.920;2022-08-19T05:03:48;23.50;;;17.45;;
19919;SDS011;10122;50.074;19.920;2022-08-19T05:06:15;20.13;;;16.48;;
19919;SDS011;10122;50.074;19.920;2022-08-19T05:08:43;22.88;;;17.35;;
19919;SDS011;10122;50.074;19.920;2022-08-19T05:11:11;22.67;;;18.45;;
19919;SDS011;10122;50.074;19.920;2022-08-19T05:13:37;21.63;;;17.73;;
19919;SDS011;10122;50.074;19.920;2022-08-19T05:16:03;26.08;;;18.33;;
19919;SDS011;10122;50.074;19.920;2022-08-19T05:18:28;25.27;;;18.92;;
19919;SDS011;10122;50.074;19.920;2022-08-19T05:21:14;24.10;;;18.25;;
19919;SDS011;10122;50.074;19.920;2022-08-19T05:24:00;20.73;;;17.45;;
19919;SDS011;10122;50.074;19.920;2022-08-19T05:26:27;22.98;;;16.48;;
19919;SDS011;10122;50.074;19.920;2022-08-19T05:28:53;19.08;;;16.05;;
19919;SDS011;10122;50.074;19.920;2022-08-19T05:31:20;21.77;;;16.90;;
19919;SDS011;10122;50.074;19.920;2022-08-19T05:33:46;20.42;;;15.98;;
19919;SDS011;10122;50.074;19.920;2022-08-19T05:36:13;22.80;;;16.25;;
19919;SDS011;10122;50.074;19.920;2022-08-19T05:38:39;20.70;;;16.13;;
19919;SDS011;10122;50.074;19.920;2022-08-19T05:41:08;22.83;;;16.02;;
19919;SDS011;10122;50.074;19.920;2022-08-19T05:43:35;22.20;;;16.08;;
19919;SDS011;10122;50.074;19.920;2022-08-19T05:46:02;23.80;;;15.10;;
19919;SDS011;10122;50.074;19.920;2022-08-19T05:48:29;20.98;;;14.95;;
19919;SDS011;10122;50.074;19.920;2022-08-19T05:50:56;22.42;;;15.68;;
19919;SDS011;10122;50.074;19.920;2022-08-19T05:53:23;22.13;;;14.82;;
19919;SDS011;10122;50.074;19.920;2022-08-19T05:55:49;18.95;;;14.57;;
19919;SDS011;10122;50.074;19.920;2022-08-19T05:58:14;21.10;;;15.80;;
19919;SDS011;10122;50.074;19.920;2022-08-19T06:00:40;19.65;;;14.93;;
19919;SDS011;10122;50.074;19.920;2022-08-19T06:03:08;22.67;;;15.77;;
19919;SDS011;10122;50.074;19.920;2022-08-19T06:05:33;19.88;;;15.10;;
19919;SDS011;10122;50.074;19.920;2022-08-19T06:07:59;21.85;;;15.02;;
19919;SDS011;10122;50.074;19.920;2022-08-19T06:10:25;17.95;;;14.82;;
19919;SDS011;10122;50.074;19.920;2022-08-19T06:12:51;18.92;;;14.43;;
19919;SDS011;10122;50.074;19.920;2022-08-19T06:15:17;18.48;;;14.43;;
19919;SDS011;10122;50.074;19.920;2022-08-19T06:17:43;19.67;;;13.70;;
19919;SDS011;10122;50.074;19.920;2022-08-19T06:20:12;19.85;;;14.70;;
19919;SDS011;10122;50.074;19.920;2022-08-19T06:22:43;18.58;;;14.23;;
19919;SDS011;10122;50.074;19.920;2022-08-19T06:25:11;21.13;;;13.68;;
19919;SDS011;10122;50.074;19.920;2022-08-19T06:27:38;20.90;;;13.93;;
19919;SDS011;10122;50.074;19.920;2022-08-19T06:30:04;20.30;;;13.15;;
19919;SDS011;10122;50.074;19.920;2022-08-19T06:32:31;18.05;;;12.90;;
19919;SDS011;10122;50.074;19.920;2022-08-19T06:34:56;19.90;;;13.23;;
19919;SDS011;10122;50.074;19.920;2022-08-19T06:37:22;18.08;;;13.20;;
19919;SDS011;10122;50.074;19.920;2022-08-19T06:39:48;18.92;;;13.15;;
19919;SDS011;10122;50.074;19.920;2022-08-19T06:42:15;19.75;;;13.13;;
19919;SDS011;10122;50.074;19.920;2022-08-19T06:44:44;19.98;;;12.90;;
19919;SDS011;10122;50.074;19.920;2022-08-19T06:47:13;22.08;;;13.35;;
19919;SDS011;10122;50.074;19.920;2022-08-19T06:49:41;18.35;;;13.48;;
19919;SDS011;10122;50.074;19.920;2022-08-19T06:52:07;18.60;;;12.57;;
19919;SDS011;10122;50.074;19.920;2022-08-19T06:54:36;20.23;;;13.90;;
19919;SDS011;10122;50.074;19.920;2022-08-19T06:57:02;19.58;;;13.75;;
19919;SDS011;10122;50.074;19.920;2022-08-19T06:59:28;20.42;;;13.45;;
19919;SDS011;10122;50.074;19.920;2022-08-19T07:01:57;19.90;;;13.38;;
19919;SDS011;10122;50.074;19.920;2022-08-19T07:04:27;17.95;;;13.02;;
19919;SDS011;10122;50.074;19.920;2022-08-19T07:07:00;19.45;;;13.45;;
19919;SDS011;10122;50.074;19.920;2022-08-19T07:09:31;18.83;;;13.38;;
19919;SDS011;10122;50.074;19.920;2022-08-19T07:11:56;21.63;;;12.90;;
19919;SDS011;10122;50.074;19.920;2022-08-19T07:14:23;19.85;;;13.68;;
19919;SDS011;10122;50.074;19.920;2022-08-19T07:16:51;19.00;;;14.15;;
19919;SDS011;10122;50.074;19.920;2022-08-19T07:19:20;20.75;;;13.52;;
19919;SDS011;10122;50.074;19.920;2022-08-19T07:21:50;18.38;;;13.70;;
19919;SDS011;10122;50.074;19.920;2022-08-19T07:24:19;21.60;;;14.45;;
19919;SDS011;10122;50.074;19.920;2022-08-19T07:26:49;18.77;;;13.30;;
19919;SDS011;10122;50.074;19.920;2022-08-19T07:29:16;17.05;;;13.18;;
19919;SDS011;10122;50.074;19.920;2022-08-19T07:31:42;19.90;;;14.57;;
19919;SDS011;10122;50.074;19.920;2022-08-19T07:34:08;20.63;;;14.30;;
19919;SDS011;10122;50.074;19.920;2022-08-19T07:36:37;26.20;;;15.50;;
19919;SDS011;10122;50.074;19.920;2022-08-19T07:39:07;21.38;;;14.30;;
19919;SDS011;10122;50.074;19.920;2022-08-19T07:41:36;22.60;;;14.20;;
19919;SDS011;10122;50.074;19.920;2022-08-19T07:44:03;22.33;;;14.10;;
19919;SDS011;10122;50.074;19.920;2022-08-19T07:46:33;23.75;;;13.60;;
19919;SDS011;10122;50.074;19.920;2022-08-19T07:49:02;21.98;;;14.07;;
19919;SDS011;10122;50.074;19.920;2022-08-19T07:51:28;20.17;;;12.98;;
19919;SDS011;10122;50.074;19.920;2022-08-19T07:53:54;20.85;;;13.68;;
19919;SDS011;10122;50.074;19.920;2022-08-19T07:56:20;26.70;;;13.77;;
19919;SDS011;10122;50.074;19.920;2022-08-19T07:58:48;19.75;;;12.18;;
19919;SDS011;10122;50.074;19.920;2022-08-19T08:01:18;18.48;;;11.93;;
19919;SDS011;10122;50.074;19.920;2022-08-19T08:03:49;20.30;;;11.48;;
19919;SDS011;10122;50.074;19.920;2022-08-19T08:06:35;16.92;;;11.25;;
19919;SDS011;10122;50.074;19.920;2022-08-19T08:09:21;22.33;;;11.10;;
19919;SDS011;10122;50.074;19.920;2022-08-19T08:14:47;17.60;;;10.32;;
19919;SDS011;10122;50.074;19.920;2022-08-19T08:17:15;19.13;;;10.60;;
19919;SDS011;10122;50.074;19.920;2022-08-19T08:19:43;16.00;;;10.55;;
19919;SDS011;10122;50.074;19.920;2022-08-19T08:22:10;14.65;;;10.55;;
19919;SDS011;10122;50.074;19.920;2022-08-19T08:25:00;18.80;;;10.95;;
19919;SDS011;10122;50.074;19.920;2022-08-19T08:27:28;15.93;;;10.93;;
19919;SDS011;10122;50.074;19.920;2022-08-19T08:29:54;17.13;;;10.43;;
19919;SDS011;10122;50.074;19.920;2022-08-19T08:32:19;15.02;;;10.90;;
19919;SDS011;10122;50.074;19.920;2022-08-19T08:34:45;15.70;;;10.20;;
19919;SDS011;10122;50.074;19.920;2022-08-19T08:37:10;17.00;;;10.52;;
19919;SDS011;10122;50.074;19.920;2022-08-19T08:39:36;15.90;;;10.82;;
19919;SDS011;10122;50.074;19.920;2022-08-19T08:47:14;14.80;;;10.15;;
19919;SDS011;10122;50.074;19.920;2022-08-19T08:49:59;15.07;;;10.20;;
19919;SDS011;10122;50.074;19.920;2022-08-19T08:52:33;13.77;;;10.52;;
19919;SDS011;10122;50.074;19.920;2022-08-19T08:55:05;11.65;;;9.82;;
19919;SDS011;10122;50.074;19.920;2022-08-19T09:00:21;14.95;;;10.57;;
19919;SDS011;10122;50.074;19.920;2022-08-19T09:02:52;14.90;;;10.07;;
19919;SDS011;10122;50.074;19.920;2022-08-19T09:05:19;16.00;;;10.32;;
19919;SDS011;10122;50.074;19.920;2022-08-19T09:10:43;13.25;;;10.43;;
19919;SDS011;10122;50.074;19.920;2022-08-19T09:15:56;12.50;;;9.90;;
19919;SDS011;10122;50.074;19.920;2022-08-19T09:18:38;15.73;;;10.35;;
19919;SDS011;10122;50.074;19.920;2022-08-19T09:21:12;15.90;;;10.40;;
19919;SDS011;10122;50.074;19.920;2022-08-19T09:23:39;15.95;;;10.60;;
19919;SDS011;10122;50.074;19.920;2022-08-19T09:26:08;16.20;;;10.40;;
19919;SDS011;10122;50.074;19.920;2022-08-19T09:28:38;13.23;;;10.52;;
19919;SDS011;10122;50.074;19.920;2022-08-19T09:31:08;14.95;;;10.43;;
19919;SDS011;10122;50.074;19.920;2022-08-19T09:33:38;13.57;;;10.10;;
19919;SDS011;10122;50.074;19.920;2022-08-19T09:36:07;13.95;;;10.55;;
19919;SDS011;10122;50.074;19.920;2022-08-19T09:38:35;17.67;;;10.63;;
19919;SDS011;10122;50.074;19.920;2022-08-19T09:41:04;14.10;;;10.60;;
19919;SDS011;10122;50.074;19.920;2022-08-19T09:43:31;15.23;;;10.88;;
19919;SDS011;10122;50.074;19.920;2022-08-19T09:46:01;12.43;;;9.88;;
19919;SDS011;10122;50.074;19.920;2022-08-19T09:48:29;15.38;;;9.98;;
19919;SDS011;10122;50.074;19.920;2022-08-19T09:50:55;12.73;;;10.38;;
19919;SDS011;10122;50.074;19.920;2022-08-19T09:53:28;12.45;;;10.50;;
19919;SDS011;10122;50.074;19.920;2022-08-19T09:55:54;15.88;;;9.55;;
19919;SDS011;10122;50.074;19.920;2022-08-19T09:58:20;12.27;;;9.90;;
19919;SDS011;10122;50.074;19.920;2022-08-19T10:00:47;13.32;;;9.60;;
19919;SDS011;10122;50.074;19.920;2022-08-19T10:03:13;11.52;;;9.90;;
19919;SDS011;10122;50.074;19.920;2022-08-19T10:05:38;13.65;;;10.50;;
19919;SDS011;10122;50.074;19.920;2022-08-19T10:08:13;13.15;;;10.40;;
19919;SDS011;10122;50.074;19.920;2022-08-19T10:10:43;14.40;;;10.30;;
19919;SDS011;10122;50.074;19.920;2022-08-19T10:13:10;12.77;;;9.60;;
19919;SDS011;10122;50.074;19.920;2022-08-19T10:15:36;13.52;;;9.65;;
19919;SDS011;10122;50.074;19.920;2022-08-19T10:18:04;16.90;;;10.57;;
19919;SDS011;10122;50.074;19.920;2022-08-19T10:20:30;12.00;;;9.25;;
19919;SDS011;10122;50.074;19.920;2022-08-19T10:22:56;11.43;;;9.65;;
19919;SDS011;10122;50.074;19.920;2022-08-19T10:25:24;13.10;;;9.93;;
19919;SDS011;10122;50.074;19.920;2022-08-19T10:27:51;11.48;;;9.57;;
19919;SDS011;10122;50.074;19.920;2022-08-19T10:30:17;14.80;;;9.88;;
19919;SDS011;10122;50.074;19.920;2022-08-19T10:32:44;10.90;;;9.80;;
19919;SDS011;10122;50.074;19.920;2022-08-19T10:35:11;10.48;;;8.95;;
19919;SDS011;10122;50.074;19.920;2022-08-19T10:37:37;12.82;;;9.65;;
19919;SDS011;10122;50.074;19.920;2022-08-19T10:40:04;13.27;;;10.32;;
19919;SDS011;10122;50.074;19.920;2022-08-19T10:42:32;13.35;;;10.38;;
19919;SDS011;10122;50.074;19.920;2022-08-19T10:44:59;23.60;;;11.52;;
19919;SDS011;10122;50.074;19.920;2022-08-19T10:47:25;17.58;;;11.52;;
19919;SDS011;10122;50.074;19.920;2022-08-19T10:49:51;20.67;;;11.75;;
19919;SDS011;10122;50.074;19.920;2022-08-19T10:52:36;17.25;;;11.30;;
19919;SDS011;10122;50.074;19.920;2022-08-19T10:55:03;14.93;;;11.55;;
19919;SDS011;10122;50.074;19.920;2022-08-19T10:57:49;14.88;;;11.20;;
19919;SDS011;10122;50.074;19.920;2022-08-19T11:00:15;17.55;;;10.90;;
19919;SDS011;10122;50.074;19.920;2022-08-19T11:02:41;16.42;;;11.55;;
19919;SDS011;10122;50.074;19.920;2022-08-19T11:05:07;18.15;;;12.18;;
19919;SDS011;10122;50.074;19.920;2022-08-19T11:07:36;18.70;;;12.00;;
19919;SDS011;10122;50.074;19.920;2022-08-19T11:10:03;18.73;;;12.55;;
19919;SDS011;10122;50.074;19.920;2022-08-19T11:12:29;17.33;;;12.23;;
19919;SDS011;10122;50.074;19.920;2022-08-19T11:14:55;16.33;;;11.55;;
19919;SDS011;10122;50.074;19.920;2022-08-19T11:17:20;18.02;;;12.25;;
19919;SDS011;10122;50.074;19.920;2022-08-19T11:19:48;22.65;;;11.80;;
19919;SDS011;10122;50.074;19.920;2022-08-19T11:22:15;16.20;;;11.25;;
19919;SDS011;10122;50.074;19.920;2022-08-19T11:24:42;17.67;;;11.98;;
19919;SDS011;10122;50.074;19.920;2022-08-19T11:27:08;14.27;;;10.32;;
19919;SDS011;10122;50.074;19.920;2022-08-19T11:29:35;16.48;;;11.20;;
19919;SDS011;10122;50.074;19.920;2022-08-19T11:32:04;15.05;;;9.98;;
19919;SDS011;10122;50.074;19.920;2022-08-19T11:34:32;15.43;;;10.80;;
19919;SDS011;10122;50.074;19.920;2022-08-19T11:36:59;14.88;;;10.60;;
19919;SDS011;10122;50.074;19.920;2022-08-19T11:39:29;13.93;;;10.57;;
19919;SDS011;10122;50.074;19.920;2022-08-19T11:41:57;11.70;;;10.18;;
19919;SDS011;10122;50.074;19.920;2022-08-19T11:44:23;12.25;;;10.27;;
19919;SDS011;10122;50.074;19.920;2022-08-19T11:46:50;11.43;;;10.00;;
19919;SDS011;10122;50.074;19.920;2022-08-19T11:49:17;15.63;;;10.40;;
19919;SDS011;10122;50.074;19.920;2022-08-19T11:51:44;14.50;;;10.02;;
19919;SDS011;10122;50.074;19.920;2022-08-19T11:54:10;13.35;;;9.90;;
19919;SDS011;10122;50.074;19.920;2022-08-19T11:56:38;13.57;;;9.73;;
19919;SDS011;10122;50.074;19.920;2022-08-19T11:59:04;10.50;;;9.23;;
19919;SDS011;10122;50.074;19.920;2022-08-19T12:01:30;12.75;;;9.75;;
19919;SDS011;10122;50.074;19.920;2022-08-19T12:03:56;11.93;;;9.73;;
19919;SDS011;10122;50.074;19.920;2022-08-19T12:06:24;16.63;;;10.15;;
19919;SDS011;10122;50.074;19.920;2022-08-19T12:08:53;15.10;;;10.38;;
19919;SDS011;10122;50.074;19.920;2022-08-19T12:11:23;13.20;;;9.77;;
19919;SDS011;10122;50.074;19.920;2022-08-19T12:13:50;11.65;;;10.13;;
19919;SDS011;10122;50.074;19.920;2022-08-19T12:16:17;12.27;;;9.77;;
19919;SDS011;10122;50.074;19.920;2022-08-19T12:18:45;12.80;;;9.70;;
19919;SDS011;10122;50.074;19.920;2022-08-19T12:21:15;11.70;;;9.05;;
19919;SDS011;10122;50.074;19.920;2022-08-19T12:23:43;13.20;;;9.20;;
19919;SDS011;10122;50.074;19.920;2022-08-19T12:26:10;6.78;;;5.45;;
19919;SDS011;10122;50.074;19.920;2022-08-19T12:28:37;10.43;;;9.40;;
19919;SDS011;10122;50.074;19.920;2022-08-19T12:31:03;11.63;;;9.10;;
19919;SDS011;10122;50.074;19.920;2022-08-19T12:33:30;11.18;;;9.10;;
19919;SDS011;10122;50.074;19.920;2022-08-19T12:35:59;11.65;;;9.15;;
19919;SDS011;10122;50.074;19.920;2022-08-19T12:38:28;10.10;;;9.10;;
19919;SDS011;10122;50.074;19.920;2022-08-19T12:40:53;11.07;;;9.73;;
19919;SDS011;10122;50.074;19.920;2022-08-19T12:43:19;10.18;;;9.15;;
19919;SDS011;10122;50.074;19.920;2022-08-19T12:45:45;12.18;;;9.77;;
19919;SDS011;10122;50.074;19.920;2022-08-19T12:48:11;10.77;;;9.77;;
19919;SDS011;10122;50.074;19.920;2022-08-19T12:50:40;10.77;;;9.68;;
19919;SDS011;10122;50.074;19.920;2022-08-19T12:53:07;10.57;;;9.48;;
19919;SDS011;10122;50.074;19.920;2022-08-19T12:55:33;10.10;;;8.48;;
19919;SDS011;10122;50.074;19.920;2022-08-19T12:57:59;11.18;;;8.73;;
19919;SDS011;10122;50.074;19.920;2022-08-19T13:00:26;10.77;;;8.60;;
19919;SDS011;10122;50.074;19.920;2022-08-19T13:02:52;9.88;;;8.88;;
19919;SDS011;10122;50.074;19.920;2022-08-19T13:05:20;10.77;;;9.07;;
19919;SDS011;10122;50.074;19.920;2022-08-19T13:07:48;9.77;;;8.85;;
19919;SDS011;10122;50.074;19.920;2022-08-19T13:10:16;9.57;;;8.35;;
19919;SDS011;10122;50.074;19.920;2022-08-19T13:12:44;9.02;;;8.13;;
19919;SDS011;10122;50.074;19.920;2022-08-19T13:15:12;11.20;;;7.80;;
19919;SDS011;10122;50.074;19.920;2022-08-19T13:17:39;11.55;;;7.80;;
19919;SDS011;10122;50.074;19.920;2022-08-19T13:20:05;9.13;;;8.20;;
19919;SDS011;10122;50.074;19.920;2022-08-19T13:22:35;8.43;;;7.50;;
19919;SDS011;10122;50.074;19.920;2022-08-19T13:25:01;12.02;;;8.75;;
19919;SDS011;10122;50.074;19.920;2022-08-19T13:27:28;11.70;;;8.32;;
19919;SDS011;10122;50.074;19.920;2022-08-19T13:29:54;11.90;;;7.75;;
19919;SDS011;10122;50.074;19.920;2022-08-19T13:32:38;11.18;;;8.13;;
19919;SDS011;10122;50.074;19.920;2022-08-19T13:35:22;11.05;;;8.20;;
19919;SDS011;10122;50.074;19.920;2022-08-19T13:37:48;10.73;;;8.25;;
19919;SDS011;10122;50.074;19.920;2022-08-19T13:40:17;12.18;;;7.75;;
19919;SDS011;10122;50.074;19.920;2022-08-19T13:42:52;12.45;;;8.10;;
19919;SDS011;10122;50.074;19.920;2022-08-19T13:45:20;8.82;;;7.85;;
19919;SDS011;10122;50.074;19.920;2022-08-19T13:47:51;10.55;;;6.75;;
19919;SDS011;10122;50.074;19.920;2022-08-19T13:50:21;7.65;;;6.65;;
19919;SDS011;10122;50.074;19.920;2022-08-19T13:52:50;12.07;;;7.57;;
19919;SDS011;10122;50.074;19.920;2022-08-19T13:55:17;9.48;;;6.38;;
19919;SDS011;10122;50.074;19.920;2022-08-19T13:57:43;16.70;;;7.30;;
19919;SDS011;10122;50.074;19.920;2022-08-19T14:00:11;13.30;;;7.50;;
19919;SDS011;10122;50.074;19.920;2022-08-19T14:02:40;9.90;;;7.90;;
19919;SDS011;10122;50.074;19.920;2022-08-19T14:05:06;10.85;;;8.18;;
19919;SDS011;10122;50.074;19.920;2022-08-19T14:07:35;8.30;;;7.43;;
19919;SDS011;10122;50.074;19.920;2022-08-19T14:10:01;10.65;;;7.30;;
19919;SDS011;10122;50.074;19.920;2022-08-19T14:12:32;9.18;;;7.38;;
19919;SDS011;10122;50.074;19.920;2022-08-19T14:14:58;8.02;;;7.22;;
19919;SDS011;10122;50.074;19.920;2022-08-19T14:17:24;9.02;;;7.70;;
19919;SDS011;10122;50.074;19.920;2022-08-19T14:19:59;11.07;;;8.13;;
19919;SDS011;10122;50.074;19.920;2022-08-19T14:22:29;9.95;;;7.68;;
19919;SDS011;10122;50.074;19.920;2022-08-19T14:24:56;8.73;;;7.72;;
19919;SDS011;10122;50.074;19.920;2022-08-19T14:27:22;8.73;;;7.78;;
19919;SDS011;10122;50.074;19.920;2022-08-19T14:29:49;8.90;;;8.00;;
19919;SDS011;10122;50.074;19.920;2022-08-19T14:32:14;8.80;;;7.90;;
19919;SDS011;10122;50.074;19.920;2022-08-19T14:34:40;10.55;;;8.10;;
19919;SDS011;10122;50.074;19.920;2022-08-19T14:37:06;9.35;;;8.10;;